Terminal Aerodrome Forecast
Issued by NWS

Home | Current Version | Previous Version | Text Only | Print | Product List | Glossary Off
Versions: 1 2 3 4 5 6 7 8 9 10 11 12

739
FTUS41 KCLE 202326
TAFFDY
TAF
KFDY 202326Z 2100/2124 23012G20KT P6SM VCTS SCT050CB OVC100
      TEMPO 2100/2101 VRB20G35KT 2SM TSRA SCT025CB OVC050
     FM210200 27012G20KT P6SM FEW025 SCT050
     FM210900 27012G20KT P6SM OVC025
     FM211900 30012G20KT P6SM OVC025=

USA.gov is the U.S. government's official web portal to all federal, state and local government web resources and services.